Ida, MI (48140)

3:32 PM EDT on September 01, 2015 (GMT -0400)
Rauch Road near Secor | | Change Station
CLOSE
Current Station
Personal Weather Station
Location: Temperance, MI
Elevation: 669 ft
Nearby Weather Stations

Elev 669 ft 41.82 °N, 83.62 °W | Updated 37 seconds ago

Partly Cloudy
Partly Cloudy
86.5 °F
Feels Like 95 °F
N
3.2
Wind Variable Wind from NW
Gusts 4.2 mph

Today
High -- | Low -- °F
--% Chance of Precip.
Yesterday
High -- | Low -- °F
Precip. -- in
6:59 AM 8:08 PM
Waning Gibbous, 87% visible
Pressure 30.05 in
Visibility 10.0 miles
Clouds Scattered Clouds 4300 ft
Scattered Clouds 7500 ft
Heat Index 95 °F
Dew Point 75 °F
Humidity 68%
Rainfall 0.00 in
Snow Depth Not available.
UV 6 out of 12
Pollen 10.50 out of 12
Air Quality Not available.
Flu Activity Not available.
METAR KTTF 011915Z AUTO 26007KT 10SM SCT043 SCT075 30/20 A3005 RMK AO2 T03040200
Pressure 30.05 in
Visibility 10.0 miles
Clouds Scattered Clouds 4300 ft
Scattered Clouds 7500 ft
Heat Index 95 °F
Dew Point 75 °F
Humidity 68%
Rainfall 0.00 in
Snow Depth Not available.
UV 6 out of 12
Pollen 10.50 out of 12
Air Quality Not available.
Flu Activity Not available.
METAR KTTF 011915Z AUTO 26007KT 10SM SCT043 SCT075 30/20 A3005 RMK AO2 T03040200

10-Day Weather Forecast

×

Almanac

Astronomy

Sep. 01, 2015 Rise Set
Actual Time
Civil Twilight
Nautical Twilight
Astronomical Twilight
Moon
Length of Visible Light
Length of Day
Tomorrow will be .
, % of the Moon is Illuminated

Today's Extremes

State Highs State Lows

Community

WunderPhotos

Upload Photos

1,851,597 photos uploaded!

WunderBlogs® & News

Nearby

Air Quality

  Air Quality AQ Index Pollutant
Not available.

Snow Depth

Station Depth Elevation

Earthquake Activity

City Distance Mag. Time & Date
Minimum magnitude displayed is 2.5.

Coastal Water Temperatures

Place Temperature

Stations

Nearby Weather Stations

Station Location Temp. Windchill Dew Point Humidity Wind Precip. Elev Updated Type